sim
Sign-in with your pilot id or email,
or register
Callsign
Passwort

Schedule Details

Flight Number: DLH2005
Departure: Dusseldorf International Airport (EDDL) at 08:25
Arrival: Munich Airport (EDDM) at 09:35
Route: Lufthansa Passenger Schedule. Enter filed route here before submitting Pirep.

Weather Information
Getting current METAR information for EDDL 240120Z 21012KT 9999 FEW036 17/14 Q1000 TEMPO 20015G25KT SHRA
Getting current METAR information for EDDM 240120Z 24003KT CAVOK 11/11 Q1009 NOSIG

Schedule Frequency

Route Map